sensor_id;sensor_type;location;lat;lon;timestamp;temperature;humidity
76567;DHT22;65428;53.194;6.132;2023-08-08T00:02:05;14.50;99.90
76567;DHT22;65428;53.194;6.132;2023-08-08T00:04:31;14.50;99.90
76567;DHT22;65428;53.194;6.132;2023-08-08T00:06:57;14.50;99.90
76567;DHT22;65428;53.194;6.132;2023-08-08T00:09:22;14.80;99.90
76567;DHT22;65428;53.194;6.132;2023-08-08T00:11:48;14.50;99.90
76567;DHT22;65428;53.194;6.132;2023-08-08T00:14:14;14.60;99.90
76567;DHT22;65428;53.194;6.132;2023-08-08T00:16:41;14.40;99.90
76567;DHT22;65428;53.194;6.132;2023-08-08T00:19:07;14.40;99.90
76567;DHT22;65428;53.194;6.132;2023-08-08T00:21:32;14.40;99.90
76567;DHT22;65428;53.194;6.132;2023-08-08T00:23:58;14.30;99.90
76567;DHT22;65428;53.194;6.132;2023-08-08T00:26:23;14.50;99.90
76567;DHT22;65428;53.194;6.132;2023-08-08T00:28:49;14.30;99.90
76567;DHT22;65428;53.194;6.132;2023-08-08T00:31:15;14.20;99.90
76567;DHT22;65428;53.194;6.132;2023-08-08T00:33:43;14.20;99.90
76567;DHT22;65428;53.194;6.132;2023-08-08T00:36:09;14.20;99.90
76567;DHT22;65428;53.194;6.132;2023-08-08T00:38:34;14.40;99.90
76567;DHT22;65428;53.194;6.132;2023-08-08T00:41:00;14.10;99.90
76567;DHT22;65428;53.194;6.132;2023-08-08T00:43:26;14.40;99.90
76567;DHT22;65428;53.194;6.132;2023-08-08T00:45:52;14.10;99.90
76567;DHT22;65428;53.194;6.132;2023-08-08T00:48:18;14.30;99.90
76567;DHT22;65428;53.194;6.132;2023-08-08T00:50:45;14.20;99.90
76567;DHT22;65428;53.194;6.132;2023-08-08T00:53:13;14.10;99.90
76567;DHT22;65428;53.194;6.132;2023-08-08T00:55:39;14.10;99.90
76567;DHT22;65428;53.194;6.132;2023-08-08T00:58:05;14.20;99.90
76567;DHT22;65428;53.194;6.132;2023-08-08T01:00:31;13.80;99.90
76567;DHT22;65428;53.194;6.132;2023-08-08T01:02:57;13.90;99.90
76567;DHT22;65428;53.194;6.132;2023-08-08T01:05:23;13.90;99.90
76567;DHT22;65428;53.194;6.132;2023-08-08T01:08:06;13.80;99.90
76567;DHT22;65428;53.194;6.132;2023-08-08T01:10:40;13.90;99.90
76567;DHT22;65428;53.194;6.132;2023-08-08T01:13:33;13.80;99.90
76567;DHT22;65428;53.194;6.132;2023-08-08T01:15:59;13.80;99.90
76567;DHT22;65428;53.194;6.132;2023-08-08T01:18:26;13.80;99.90
76567;DHT22;65428;53.194;6.132;2023-08-08T01:20:53;13.80;99.90
76567;DHT22;65428;53.194;6.132;2023-08-08T01:23:52;13.70;99.90
76567;DHT22;65428;53.194;6.132;2023-08-08T01:26:12;13.60;99.90
76567;DHT22;65428;53.194;6.132;2023-08-08T01:28:38;13.60;99.90
76567;DHT22;65428;53.194;6.132;2023-08-08T01:31:04;13.90;99.90
76567;DHT22;65428;53.194;6.132;2023-08-08T01:33:29;13.50;99.90
76567;DHT22;65428;53.194;6.132;2023-08-08T01:36:10;13.50;99.90
76567;DHT22;65428;53.194;6.132;2023-08-08T01:38:42;13.50;99.90
76567;DHT22;65428;53.194;6.132;2023-08-08T01:41:09;13.20;99.90
76567;DHT22;65428;53.194;6.132;2023-08-08T01:43:37;13.40;99.90
76567;DHT22;65428;53.194;6.132;2023-08-08T01:46:04;13.60;99.90
76567;DHT22;65428;53.194;6.132;2023-08-08T01:48:30;13.60;99.90
76567;DHT22;65428;53.194;6.132;2023-08-08T01:50:55;13.50;99.90
76567;DHT22;65428;53.194;6.132;2023-08-08T01:53:21;13.30;99.90
76567;DHT22;65428;53.194;6.132;2023-08-08T01:55:47;13.30;99.90
76567;DHT22;65428;53.194;6.132;2023-08-08T01:58:13;13.30;99.90
76567;DHT22;65428;53.194;6.132;2023-08-08T02:00:38;13.40;99.90
76567;DHT22;65428;53.194;6.132;2023-08-08T02:03:06;13.40;99.90
76567;DHT22;65428;53.194;6.132;2023-08-08T02:05:32;13.70;99.90
76567;DHT22;65428;53.194;6.132;2023-08-08T02:07:58;13.30;99.90
76567;DHT22;65428;53.194;6.132;2023-08-08T02:10:23;13.40;99.90
76567;DHT22;65428;53.194;6.132;2023-08-08T02:12:49;13.30;99.90
76567;DHT22;65428;53.194;6.132;2023-08-08T02:15:14;13.60;99.90
76567;DHT22;65428;53.194;6.132;2023-08-08T02:17:40;13.40;99.90
76567;DHT22;65428;53.194;6.132;2023-08-08T02:20:06;13.40;99.90
76567;DHT22;65428;53.194;6.132;2023-08-08T02:22:33;13.50;99.90
76567;DHT22;65428;53.194;6.132;2023-08-08T02:24:58;13.60;99.90
76567;DHT22;65428;53.194;6.132;2023-08-08T02:27:24;14.00;99.90
76567;DHT22;65428;53.194;6.132;2023-08-08T02:29:49;13.60;99.90
76567;DHT22;65428;53.194;6.132;2023-08-08T02:32:15;13.60;99.90
76567;DHT22;65428;53.194;6.132;2023-08-08T02:34:40;13.60;99.90
76567;DHT22;65428;53.194;6.132;2023-08-08T02:37:08;13.80;99.90
76567;DHT22;65428;53.194;6.132;2023-08-08T02:39:34;13.60;99.90
76567;DHT22;65428;53.194;6.132;2023-08-08T02:41:59;13.50;99.90
76567;DHT22;65428;53.194;6.132;2023-08-08T02:44:25;13.60;99.90
76567;DHT22;65428;53.194;6.132;2023-08-08T02:46:50;13.60;99.90
76567;DHT22;65428;53.194;6.132;2023-08-08T02:49:16;14.00;99.90
76567;DHT22;65428;53.194;6.132;2023-08-08T02:51:42;14.10;99.90
76567;DHT22;65428;53.194;6.132;2023-08-08T02:54:07;13.40;99.90
76567;DHT22;65428;53.194;6.132;2023-08-08T02:56:33;13.70;99.90
76567;DHT22;65428;53.194;6.132;2023-08-08T02:58:58;13.60;99.90
76567;DHT22;65428;53.194;6.132;2023-08-08T03:01:24;13.60;99.90
76567;DHT22;65428;53.194;6.132;2023-08-08T03:03:50;13.60;99.90
76567;DHT22;65428;53.194;6.132;2023-08-08T03:06:15;13.60;99.90
76567;DHT22;65428;53.194;6.132;2023-08-08T03:08:41;13.60;99.90
76567;DHT22;65428;53.194;6.132;2023-08-08T03:11:07;13.60;99.90
76567;DHT22;65428;53.194;6.132;2023-08-08T03:13:33;13.60;99.90
76567;DHT22;65428;53.194;6.132;2023-08-08T03:15:58;13.60;99.90
76567;DHT22;65428;53.194;6.132;2023-08-08T03:18:24;13.60;99.90
76567;DHT22;65428;53.194;6.132;2023-08-08T03:20:51;13.50;99.90
76567;DHT22;65428;53.194;6.132;2023-08-08T03:23:17;13.50;99.90
76567;DHT22;65428;53.194;6.132;2023-08-08T03:25:43;13.50;99.90
76567;DHT22;65428;53.194;6.132;2023-08-08T03:28:09;13.40;99.90
76567;DHT22;65428;53.194;6.132;2023-08-08T03:30:37;13.40;99.90
76567;DHT22;65428;53.194;6.132;2023-08-08T03:33:04;13.40;99.90
76567;DHT22;65428;53.194;6.132;2023-08-08T03:35:29;13.30;99.90
76567;DHT22;65428;53.194;6.132;2023-08-08T03:37:55;13.30;99.90
76567;DHT22;65428;53.194;6.132;2023-08-08T03:40:21;13.20;99.90
76567;DHT22;65428;53.194;6.132;2023-08-08T03:42:46;13.40;99.90
76567;DHT22;65428;53.194;6.132;2023-08-08T03:45:12;13.20;99.90
76567;DHT22;65428;53.194;6.132;2023-08-08T03:47:38;13.20;99.90
76567;DHT22;65428;53.194;6.132;2023-08-08T03:50:04;13.20;99.90
76567;DHT22;65428;53.194;6.132;2023-08-08T03:52:30;13.20;99.90
76567;DHT22;65428;53.194;6.132;2023-08-08T03:54:56;13.50;99.90
76567;DHT22;65428;53.194;6.132;2023-08-08T03:57:22;13.30;99.90
76567;DHT22;65428;53.194;6.132;2023-08-08T03:59:48;13.60;99.90
76567;DHT22;65428;53.194;6.132;2023-08-08T04:02:13;13.20;99.90
76567;DHT22;65428;53.194;6.132;2023-08-08T04:04:39;13.20;99.90
76567;DHT22;65428;53.194;6.132;2023-08-08T04:07:04;13.10;99.90
76567;DHT22;65428;53.194;6.132;2023-08-08T04:09:30;13.10;99.90
76567;DHT22;65428;53.194;6.132;2023-08-08T04:11:56;13.10;99.90
76567;DHT22;65428;53.194;6.132;2023-08-08T04:14:22;13.10;99.90
76567;DHT22;65428;53.194;6.132;2023-08-08T04:16:48;13.30;99.90
76567;DHT22;65428;53.194;6.132;2023-08-08T04:19:13;13.00;99.90
76567;DHT22;65428;53.194;6.132;2023-08-08T04:21:39;13.00;99.90
76567;DHT22;65428;53.194;6.132;2023-08-08T04:24:05;13.00;99.90
76567;DHT22;65428;53.194;6.132;2023-08-08T04:26:33;13.00;99.90
76567;DHT22;65428;53.194;6.132;2023-08-08T04:28:59;13.00;99.90
76567;DHT22;65428;53.194;6.132;2023-08-08T04:31:24;13.00;99.90
76567;DHT22;65428;53.194;6.132;2023-08-08T04:33:52;13.10;99.90
76567;DHT22;65428;53.194;6.132;2023-08-08T04:36:23;13.20;99.90
76567;DHT22;65428;53.194;6.132;2023-08-08T04:38:49;13.50;99.90
76567;DHT22;65428;53.194;6.132;2023-08-08T04:41:15;13.00;99.90
76567;DHT22;65428;53.194;6.132;2023-08-08T04:43:40;13.30;99.90
76567;DHT22;65428;53.194;6.132;2023-08-08T04:46:06;13.20;99.90
76567;DHT22;65428;53.194;6.132;2023-08-08T04:48:32;13.00;99.90
76567;DHT22;65428;53.194;6.132;2023-08-08T04:50:58;13.00;99.90
76567;DHT22;65428;53.194;6.132;2023-08-08T04:53:23;13.00;99.90
76567;DHT22;65428;53.194;6.132;2023-08-08T04:55:49;13.00;99.90
76567;DHT22;65428;53.194;6.132;2023-08-08T04:58:15;13.30;99.90
76567;DHT22;65428;53.194;6.132;2023-08-08T05:00:40;13.10;99.90
76567;DHT22;65428;53.194;6.132;2023-08-08T05:03:06;13.20;99.90
76567;DHT22;65428;53.194;6.132;2023-08-08T05:05:32;13.10;99.90
76567;DHT22;65428;53.194;6.132;2023-08-08T05:07:58;13.40;99.90
76567;DHT22;65428;53.194;6.132;2023-08-08T05:10:23;13.20;99.90
76567;DHT22;65428;53.194;6.132;2023-08-08T05:12:49;13.30;99.90
76567;DHT22;65428;53.194;6.132;2023-08-08T05:15:15;13.40;99.90
76567;DHT22;65428;53.194;6.132;2023-08-08T05:17:41;13.60;99.90
76567;DHT22;65428;53.194;6.132;2023-08-08T05:20:07;13.60;99.90
76567;DHT22;65428;53.194;6.132;2023-08-08T05:22:34;13.80;99.90
76567;DHT22;65428;53.194;6.132;2023-08-08T05:24:59;14.10;99.90
76567;DHT22;65428;53.194;6.132;2023-08-08T05:27:25;14.00;99.90
76567;DHT22;65428;53.194;6.132;2023-08-08T05:29:51;14.00;99.90
76567;DHT22;65428;53.194;6.132;2023-08-08T05:32:16;14.20;99.90
76567;DHT22;65428;53.194;6.132;2023-08-08T05:34:43;14.20;99.90
76567;DHT22;65428;53.194;6.132;2023-08-08T05:37:09;14.30;99.90
76567;DHT22;65428;53.194;6.132;2023-08-08T05:39:34;14.80;99.90
76567;DHT22;65428;53.194;6.132;2023-08-08T05:42:00;14.50;99.90
76567;DHT22;65428;53.194;6.132;2023-08-08T05:44:26;14.60;99.90
76567;DHT22;65428;53.194;6.132;2023-08-08T05:46:52;14.60;99.90
76567;DHT22;65428;53.194;6.132;2023-08-08T05:49:18;14.60;99.90
76567;DHT22;65428;53.194;6.132;2023-08-08T05:51:43;14.60;99.90
76567;DHT22;65428;53.194;6.132;2023-08-08T05:54:09;14.70;99.90
76567;DHT22;65428;53.194;6.132;2023-08-08T05:56:37;15.00;99.90
76567;DHT22;65428;53.194;6.132;2023-08-08T05:59:03;15.20;99.90
76567;DHT22;65428;53.194;6.132;2023-08-08T06:01:30;15.00;99.90
76567;DHT22;65428;53.194;6.132;2023-08-08T06:03:56;15.10;99.90
76567;DHT22;65428;53.194;6.132;2023-08-08T06:06:23;15.40;99.90
76567;DHT22;65428;53.194;6.132;2023-08-08T06:08:49;15.40;99.90
76567;DHT22;65428;53.194;6.132;2023-08-08T06:11:14;15.50;99.90
76567;DHT22;65428;53.194;6.132;2023-08-08T06:13:40;15.60;99.90
76567;DHT22;65428;53.194;6.132;2023-08-08T06:16:05;15.80;99.90
76567;DHT22;65428;53.194;6.132;2023-08-08T06:18:35;15.90;99.90
76567;DHT22;65428;53.194;6.132;2023-08-08T06:21:02;15.90;99.90
76567;DHT22;65428;53.194;6.132;2023-08-08T06:23:27;16.00;99.90
76567;DHT22;65428;53.194;6.132;2023-08-08T06:25:53;16.10;99.90
76567;DHT22;65428;53.194;6.132;2023-08-08T06:28:19;16.20;99.90
76567;DHT22;65428;53.194;6.132;2023-08-08T06:30:45;16.20;99.90
76567;DHT22;65428;53.194;6.132;2023-08-08T06:33:10;16.30;99.90
76567;DHT22;65428;53.194;6.132;2023-08-08T06:35:36;16.30;99.90
76567;DHT22;65428;53.194;6.132;2023-08-08T06:38:02;16.40;99.90
76567;DHT22;65428;53.194;6.132;2023-08-08T06:40:28;16.50;99.90
76567;DHT22;65428;53.194;6.132;2023-08-08T06:42:54;16.60;99.90
76567;DHT22;65428;53.194;6.132;2023-08-08T06:45:20;16.60;99.90
76567;DHT22;65428;53.194;6.132;2023-08-08T06:47:46;16.60;99.90
76567;DHT22;65428;53.194;6.132;2023-08-08T06:50:12;16.90;99.90
76567;DHT22;65428;53.194;6.132;2023-08-08T06:52:38;16.70;99.90
76567;DHT22;65428;53.194;6.132;2023-08-08T06:55:04;16.70;99.90
76567;DHT22;65428;53.194;6.132;2023-08-08T06:57:34;17.00;99.90
76567;DHT22;65428;53.194;6.132;2023-08-08T07:00:00;17.10;99.90
76567;DHT22;65428;53.194;6.132;2023-08-08T07:02:26;16.90;99.90
76567;DHT22;65428;53.194;6.132;2023-08-08T07:04:51;17.00;99.90
76567;DHT22;65428;53.194;6.132;2023-08-08T07:07:17;17.00;99.90
76567;DHT22;65428;53.194;6.132;2023-08-08T07:09:43;17.00;99.90
76567;DHT22;65428;53.194;6.132;2023-08-08T07:12:09;16.90;99.90
76567;DHT22;65428;53.194;6.132;2023-08-08T07:14:34;16.90;99.90
76567;DHT22;65428;53.194;6.132;2023-08-08T07:17:00;17.20;99.90
76567;DHT22;65428;53.194;6.132;2023-08-08T07:19:28;17.30;99.90
76567;DHT22;65428;53.194;6.132;2023-08-08T07:21:53;17.40;99.90
76567;DHT22;65428;53.194;6.132;2023-08-08T07:24:19;17.70;99.90
76567;DHT22;65428;53.194;6.132;2023-08-08T07:26:45;17.60;99.90
76567;DHT22;65428;53.194;6.132;2023-08-08T07:29:11;17.70;99.90
76567;DHT22;65428;53.194;6.132;2023-08-08T07:31:37;17.60;99.90
76567;DHT22;65428;53.194;6.132;2023-08-08T07:34:02;17.70;99.90
76567;DHT22;65428;53.194;6.132;2023-08-08T07:36:28;17.60;99.90
76567;DHT22;65428;53.194;6.132;2023-08-08T07:38:53;17.50;99.90
76567;DHT22;65428;53.194;6.132;2023-08-08T07:41:25;17.50;99.90
76567;DHT22;65428;53.194;6.132;2023-08-08T07:43:51;17.40;99.90
76567;DHT22;65428;53.194;6.132;2023-08-08T07:46:17;17.30;99.90
76567;DHT22;65428;53.194;6.132;2023-08-08T07:48:43;17.20;99.90
76567;DHT22;65428;53.194;6.132;2023-08-08T07:51:08;17.20;99.90
76567;DHT22;65428;53.194;6.132;2023-08-08T07:53:34;17.30;99.90
76567;DHT22;65428;53.194;6.132;2023-08-08T07:55:59;17.40;99.90
76567;DHT22;65428;53.194;6.132;2023-08-08T07:58:25;17.70;99.90
76567;DHT22;65428;53.194;6.132;2023-08-08T08:00:52;17.60;99.90
76567;DHT22;65428;53.194;6.132;2023-08-08T08:03:19;17.40;99.90
76567;DHT22;65428;53.194;6.132;2023-08-08T08:05:45;17.50;99.90
76567;DHT22;65428;53.194;6.132;2023-08-08T08:08:10;17.60;99.90
76567;DHT22;65428;53.194;6.132;2023-08-08T08:10:36;17.40;99.90
76567;DHT22;65428;53.194;6.132;2023-08-08T08:13:02;17.30;99.90
76567;DHT22;65428;53.194;6.132;2023-08-08T08:15:28;17.40;99.90
76567;DHT22;65428;53.194;6.132;2023-08-08T08:17:54;17.40;99.90
76567;DHT22;65428;53.194;6.132;2023-08-08T08:20:20;17.40;99.90
76567;DHT22;65428;53.194;6.132;2023-08-08T08:22:46;17.50;99.90
76567;DHT22;65428;53.194;6.132;2023-08-08T08:25:12;17.50;99.90
76567;DHT22;65428;53.194;6.132;2023-08-08T08:27:38;17.60;99.90
76567;DHT22;65428;53.194;6.132;2023-08-08T08:30:05;17.70;99.90
76567;DHT22;65428;53.194;6.132;2023-08-08T08:32:33;17.90;99.90
76567;DHT22;65428;53.194;6.132;2023-08-08T08:35:03;18.20;99.90
76567;DHT22;65428;53.194;6.132;2023-08-08T08:37:32;18.10;99.90
76567;DHT22;65428;53.194;6.132;2023-08-08T08:39:58;18.10;99.90
76567;DHT22;65428;53.194;6.132;2023-08-08T08:42:24;18.60;99.90
76567;DHT22;65428;53.194;6.132;2023-08-08T08:44:52;18.50;99.90
76567;DHT22;65428;53.194;6.132;2023-08-08T08:47:20;18.60;99.90
76567;DHT22;65428;53.194;6.132;2023-08-08T08:49:46;18.30;99.90
76567;DHT22;65428;53.194;6.132;2023-08-08T08:52:12;18.10;99.90
76567;DHT22;65428;53.194;6.132;2023-08-08T08:54:39;17.60;99.90
76567;DHT22;65428;53.194;6.132;2023-08-08T08:57:05;17.50;99.90
76567;DHT22;65428;53.194;6.132;2023-08-08T08:59:30;17.70;99.90
76567;DHT22;65428;53.194;6.132;2023-08-08T09:01:56;17.90;99.90
76567;DHT22;65428;53.194;6.132;2023-08-08T09:04:23;18.00;99.90
76567;DHT22;65428;53.194;6.132;2023-08-08T09:06:50;18.60;99.90
76567;DHT22;65428;53.194;6.132;2023-08-08T09:09:16;18.50;99.90
76567;DHT22;65428;53.194;6.132;2023-08-08T09:11:46;18.80;99.90
76567;DHT22;65428;53.194;6.132;2023-08-08T09:14:20;18.90;99.90
76567;DHT22;65428;53.194;6.132;2023-08-08T09:16:47;19.00;99.90
76567;DHT22;65428;53.194;6.132;2023-08-08T09:19:14;19.20;99.90
76567;DHT22;65428;53.194;6.132;2023-08-08T09:21:40;19.60;99.90
76567;DHT22;65428;53.194;6.132;2023-08-08T09:24:05;19.60;99.90
76567;DHT22;65428;53.194;6.132;2023-08-08T09:26:32;19.40;99.90
76567;DHT22;65428;53.194;6.132;2023-08-08T09:28:58;19.10;99.90
76567;DHT22;65428;53.194;6.132;2023-08-08T09:31:27;19.00;99.90
76567;DHT22;65428;53.194;6.132;2023-08-08T09:33:59;18.70;99.90
76567;DHT22;65428;53.194;6.132;2023-08-08T09:36:25;18.50;99.90
76567;DHT22;65428;53.194;6.132;2023-08-08T09:38:52;18.50;99.90
76567;DHT22;65428;53.194;6.132;2023-08-08T09:41:19;18.40;99.90
76567;DHT22;65428;53.194;6.132;2023-08-08T09:43:46;18.50;99.90
76567;DHT22;65428;53.194;6.132;2023-08-08T09:46:12;18.20;99.90
76567;DHT22;65428;53.194;6.132;2023-08-08T09:48:40;18.30;99.90
76567;DHT22;65428;53.194;6.132;2023-08-08T09:51:07;17.90;99.90
76567;DHT22;65428;53.194;6.132;2023-08-08T09:53:34;17.60;99.90
76567;DHT22;65428;53.194;6.132;2023-08-08T09:56:03;17.60;99.90
76567;DHT22;65428;53.194;6.132;2023-08-08T09:58:29;18.00;99.90
76567;DHT22;65428;53.194;6.132;2023-08-08T10:00:55;17.90;99.90
76567;DHT22;65428;53.194;6.132;2023-08-08T10:03:21;18.40;99.90
76567;DHT22;65428;53.194;6.132;2023-08-08T10:05:47;18.90;99.90
76567;DHT22;65428;53.194;6.132;2023-08-08T10:08:15;19.10;99.90
76567;DHT22;65428;53.194;6.132;2023-08-08T10:10:42;19.00;99.90
76567;DHT22;65428;53.194;6.132;2023-08-08T10:13:10;18.80;99.90
76567;DHT22;65428;53.194;6.132;2023-08-08T10:15:39;19.00;99.90
76567;DHT22;65428;53.194;6.132;2023-08-08T10:18:05;19.20;99.90
76567;DHT22;65428;53.194;6.132;2023-08-08T10:20:32;19.30;99.90
76567;DHT22;65428;53.194;6.132;2023-08-08T10:23:01;19.10;95.80
76567;DHT22;65428;53.194;6.132;2023-08-08T10:25:30;18.70;91.90
76567;DHT22;65428;53.194;6.132;2023-08-08T10:28:08;18.70;90.30
76567;DHT22;65428;53.194;6.132;2023-08-08T10:33:33;19.50;94.80
76567;DHT22;65428;53.194;6.132;2023-08-08T10:36:06;20.10;90.20
76567;DHT22;65428;53.194;6.132;2023-08-08T10:38:49;20.50;75.20
76567;DHT22;65428;53.194;6.132;2023-08-08T10:41:20;20.90;72.60
76567;DHT22;65428;53.194;6.132;2023-08-08T10:43:55;21.10;65.70
76567;DHT22;65428;53.194;6.132;2023-08-08T10:46:27;21.10;62.30
76567;DHT22;65428;53.194;6.132;2023-08-08T10:48:58;20.90;63.20
76567;DHT22;65428;53.194;6.132;2023-08-08T10:51:44;20.70;68.40
76567;DHT22;65428;53.194;6.132;2023-08-08T10:54:23;20.20;64.00
76567;DHT22;65428;53.194;6.132;2023-08-08T10:56:57;20.10;70.30
76567;DHT22;65428;53.194;6.132;2023-08-08T10:59:37;20.40;69.00
76567;DHT22;65428;53.194;6.132;2023-08-08T11:02:03;20.70;68.00
76567;DHT22;65428;53.194;6.132;2023-08-08T11:04:30;20.90;67.20
76567;DHT22;65428;53.194;6.132;2023-08-08T11:06:58;21.20;67.20
76567;DHT22;65428;53.194;6.132;2023-08-08T11:09:24;21.10;62.20
76567;DHT22;65428;53.194;6.132;2023-08-08T11:11:52;20.80;61.90
76567;DHT22;65428;53.194;6.132;2023-08-08T11:14:20;20.30;61.30
76567;DHT22;65428;53.194;6.132;2023-08-08T11:16:48;20.20;63.70
76567;DHT22;65428;53.194;6.132;2023-08-08T11:19:14;20.40;69.60
76567;DHT22;65428;53.194;6.132;2023-08-08T11:21:42;20.80;69.50
76567;DHT22;65428;53.194;6.132;2023-08-08T11:24:09;21.20;64.10
76567;DHT22;65428;53.194;6.132;2023-08-08T11:26:36;21.50;61.90
76567;DHT22;65428;53.194;6.132;2023-08-08T11:29:03;21.40;63.80
76567;DHT22;65428;53.194;6.132;2023-08-08T11:31:30;21.50;63.20
76567;DHT22;65428;53.194;6.132;2023-08-08T11:33:56;21.90;62.20
76567;DHT22;65428;53.194;6.132;2023-08-08T11:36:22;21.40;60.80
76567;DHT22;65428;53.194;6.132;2023-08-08T11:38:50;21.40;61.80
76567;DHT22;65428;53.194;6.132;2023-08-08T11:41:18;21.10;61.90
76567;DHT22;65428;53.194;6.132;2023-08-08T11:43:45;21.00;62.80
76567;DHT22;65428;53.194;6.132;2023-08-08T11:46:15;20.90;62.00
76567;DHT22;65428;53.194;6.132;2023-08-08T11:48:41;20.60;61.70
76567;DHT22;65428;53.194;6.132;2023-08-08T11:51:08;20.60;61.80
76567;DHT22;65428;53.194;6.132;2023-08-08T11:53:34;20.20;64.70
76567;DHT22;65428;53.194;6.132;2023-08-08T11:56:01;19.70;75.60
76567;DHT22;65428;53.194;6.132;2023-08-08T11:58:29;18.90;99.90
76567;DHT22;65428;53.194;6.132;2023-08-08T12:00:56;18.30;99.90
76567;DHT22;65428;53.194;6.132;2023-08-08T12:03:25;17.90;99.90
76567;DHT22;65428;53.194;6.132;2023-08-08T12:05:51;18.10;99.90
76567;DHT22;65428;53.194;6.132;2023-08-08T12:08:18;17.70;99.90
76567;DHT22;65428;53.194;6.132;2023-08-08T12:10:51;18.00;99.90
76567;DHT22;65428;53.194;6.132;2023-08-08T12:13:22;18.50;99.90
76567;DHT22;65428;53.194;6.132;2023-08-08T12:15:48;19.20;99.90
76567;DHT22;65428;53.194;6.132;2023-08-08T12:18:18;19.50;86.60
76567;DHT22;65428;53.194;6.132;2023-08-08T12:20:44;19.70;80.60
76567;DHT22;65428;53.194;6.132;2023-08-08T12:23:11;19.60;74.20
76567;DHT22;65428;53.194;6.132;2023-08-08T12:25:36;19.80;76.60
76567;DHT22;65428;53.194;6.132;2023-08-08T12:28:03;19.80;79.90
76567;DHT22;65428;53.194;6.132;2023-08-08T12:30:28;19.80;74.70
76567;DHT22;65428;53.194;6.132;2023-08-08T12:32:54;20.00;74.70
76567;DHT22;65428;53.194;6.132;2023-08-08T12:35:20;19.40;80.80
76567;DHT22;65428;53.194;6.132;2023-08-08T12:37:46;19.20;82.60
76567;DHT22;65428;53.194;6.132;2023-08-08T12:40:12;19.00;86.70
76567;DHT22;65428;53.194;6.132;2023-08-08T12:42:38;19.30;94.30
76567;DHT22;65428;53.194;6.132;2023-08-08T12:45:05;20.10;99.90
76567;DHT22;65428;53.194;6.132;2023-08-08T12:47:31;20.80;74.80
76567;DHT22;65428;53.194;6.132;2023-08-08T12:49:57;21.50;70.10
76567;DHT22;65428;53.194;6.132;2023-08-08T12:52:23;21.30;66.10
76567;DHT22;65428;53.194;6.132;2023-08-08T12:54:49;21.00;64.00
76567;DHT22;65428;53.194;6.132;2023-08-08T12:57:15;21.20;68.60
76567;DHT22;65428;53.194;6.132;2023-08-08T12:59:40;21.40;65.70
76567;DHT22;65428;53.194;6.132;2023-08-08T13:02:07;21.60;65.30
76567;DHT22;65428;53.194;6.132;2023-08-08T13:04:33;22.10;70.70
76567;DHT22;65428;53.194;6.132;2023-08-08T13:06:58;22.70;64.20
76567;DHT22;65428;53.194;6.132;2023-08-08T13:09:24;22.80;62.60
76567;DHT22;65428;53.194;6.132;2023-08-08T13:11:50;22.70;57.40
76567;DHT22;65428;53.194;6.132;2023-08-08T13:14:15;21.90;58.20
76567;DHT22;65428;53.194;6.132;2023-08-08T13:16:41;21.20;60.40
76567;DHT22;65428;53.194;6.132;2023-08-08T13:19:07;21.00;62.60
76567;DHT22;65428;53.194;6.132;2023-08-08T13:21:33;21.00;64.10
76567;DHT22;65428;53.194;6.132;2023-08-08T13:23:58;20.60;65.30
76567;DHT22;65428;53.194;6.132;2023-08-08T13:26:24;20.50;69.10
76567;DHT22;65428;53.194;6.132;2023-08-08T13:28:50;20.90;68.70
76567;DHT22;65428;53.194;6.132;2023-08-08T13:31:16;21.00;66.20
76567;DHT22;65428;53.194;6.132;2023-08-08T13:33:41;20.80;66.50
76567;DHT22;65428;53.194;6.132;2023-08-08T13:36:07;20.70;65.70
76567;DHT22;65428;53.194;6.132;2023-08-08T13:38:33;20.00;69.10
76567;DHT22;65428;53.194;6.132;2023-08-08T13:40:58;19.60;68.80
76567;DHT22;65428;53.194;6.132;2023-08-08T13:43:26;19.40;71.40
76567;DHT22;65428;53.194;6.132;2023-08-08T13:45:52;19.60;77.10
76567;DHT22;65428;53.194;6.132;2023-08-08T13:48:18;20.10;73.10
76567;DHT22;65428;53.194;6.132;2023-08-08T13:50:43;20.90;73.30
76567;DHT22;65428;53.194;6.132;2023-08-08T13:53:09;21.60;68.90
76567;DHT22;65428;53.194;6.132;2023-08-08T13:55:35;22.10;63.50
76567;DHT22;65428;53.194;6.132;2023-08-08T13:58:06;22.40;57.80
76567;DHT22;65428;53.194;6.132;2023-08-08T14:00:31;22.20;55.90
76567;DHT22;65428;53.194;6.132;2023-08-08T14:02:58;22.00;57.60
76567;DHT22;65428;53.194;6.132;2023-08-08T14:05:24;21.90;56.30
76567;DHT22;65428;53.194;6.132;2023-08-08T14:07:50;22.60;56.50
76567;DHT22;65428;53.194;6.132;2023-08-08T14:10:16;22.70;56.40
76567;DHT22;65428;53.194;6.132;2023-08-08T14:12:41;22.80;56.10
76567;DHT22;65428;53.194;6.132;2023-08-08T14:15:07;23.00;54.60
76567;DHT22;65428;53.194;6.132;2023-08-08T14:17:35;23.20;53.10
76567;DHT22;65428;53.194;6.132;2023-08-08T14:20:00;22.70;53.40
76567;DHT22;65428;53.194;6.132;2023-08-08T14:22:26;22.00;55.10
76567;DHT22;65428;53.194;6.132;2023-08-08T14:24:52;22.10;58.50
76567;DHT22;65428;53.194;6.132;2023-08-08T14:27:18;21.50;57.90
76567;DHT22;65428;53.194;6.132;2023-08-08T14:29:43;21.20;59.10
76567;DHT22;65428;53.194;6.132;2023-08-08T14:32:23;20.60;62.40
76567;DHT22;65428;53.194;6.132;2023-08-08T14:34:55;20.30;62.10
76567;DHT22;65428;53.194;6.132;2023-08-08T14:37:21;19.70;61.50
76567;DHT22;65428;53.194;6.132;2023-08-08T14:39:47;19.40;60.60
76567;DHT22;65428;53.194;6.132;2023-08-08T14:42:13;18.70;65.30
76567;DHT22;65428;53.194;6.132;2023-08-08T14:44:38;18.80;68.00
76567;DHT22;65428;53.194;6.132;2023-08-08T14:47:04;18.90;70.00
76567;DHT22;65428;53.194;6.132;2023-08-08T14:49:30;19.00;70.70
76567;DHT22;65428;53.194;6.132;2023-08-08T14:51:56;18.90;69.80
76567;DHT22;65428;53.194;6.132;2023-08-08T14:54:22;18.50;65.70
76567;DHT22;65428;53.194;6.132;2023-08-08T14:56:48;19.00;62.20
76567;DHT22;65428;53.194;6.132;2023-08-08T14:59:13;19.00;63.20
76567;DHT22;65428;53.194;6.132;2023-08-08T15:01:41;19.00;63.70
76567;DHT22;65428;53.194;6.132;2023-08-08T15:04:10;19.40;65.20
76567;DHT22;65428;53.194;6.132;2023-08-08T15:06:42;18.50;65.20
76567;DHT22;65428;53.194;6.132;2023-08-08T15:09:07;18.40;67.10
76567;DHT22;65428;53.194;6.132;2023-08-08T15:11:33;18.30;66.30
76567;DHT22;65428;53.194;6.132;2023-08-08T15:14:05;18.30;69.70
76567;DHT22;65428;53.194;6.132;2023-08-08T15:16:30;18.10;69.40
76567;DHT22;65428;53.194;6.132;2023-08-08T15:19:03;18.20;70.00
76567;DHT22;65428;53.194;6.132;2023-08-08T15:21:29;18.20;72.10
76567;DHT22;65428;53.194;6.132;2023-08-08T15:23:55;18.40;75.10
76567;DHT22;65428;53.194;6.132;2023-08-08T15:26:21;18.80;76.60
76567;DHT22;65428;53.194;6.132;2023-08-08T15:28:48;19.10;79.90
76567;DHT22;65428;53.194;6.132;2023-08-08T15:31:14;18.60;75.70